createdAt,value
2022-07-28T00:00:28.881Z,94847.09
2022-07-28T00:07:59.972Z,94825.81
2022-07-28T00:10:27.452Z,94817.41
2022-07-28T00:12:55.270Z,94804.38
2022-07-28T00:15:22.748Z,94803.06
2022-07-28T00:17:50.736Z,94792.72
2022-07-28T00:20:18.326Z,94788.56
2022-07-28T00:22:46.070Z,94786.03
2022-07-28T00:30:16.685Z,94758.69
2022-07-28T00:32:44.441Z,94759.47
2022-07-28T00:35:12.016Z,94742.97
2022-07-28T00:37:40.201Z,94742.59
2022-07-28T00:40:08.953Z,94736.69
2022-07-28T00:42:37.855Z,94732.56
2022-07-28T00:45:06.570Z,94727.97
2022-07-28T00:52:38.131Z,94715.25
2022-07-28T00:55:06.476Z,94706.22
2022-07-28T00:57:34.358Z,94718.28
2022-07-28T01:00:01.801Z,94728.34
2022-07-28T01:02:32.719Z,94764.31
2022-07-28T01:05:00.548Z,94783.97
2022-07-28T01:07:35.945Z,94777.13
2022-07-28T01:14:44.949Z,94799.88
2022-07-28T01:17:19.903Z,94804.78
2022-07-28T01:19:56.922Z,94800.50
2022-07-28T01:22:28.597Z,94797.00
2022-07-28T01:25:05.541Z,94801.28
2022-07-28T01:27:51.380Z,94797.41
2022-07-28T01:33:25.055Z,94794.94
2022-07-28T01:35:58.773Z,94792.53
2022-07-28T01:38:27.688Z,94790.94
2022-07-28T01:40:56.838Z,94777.09
2022-07-28T01:43:26.260Z,94777.22
2022-07-28T01:45:55.934Z,94786.16
2022-07-28T01:48:27.258Z,94784.97
2022-07-28T01:55:59.709Z,94790.34
2022-07-28T01:58:29.041Z,94794.34
2022-07-28T02:00:59.071Z,94781.50
2022-07-28T02:03:29.529Z,94777.59
2022-07-28T02:05:58.715Z,94771.81
2022-07-28T02:08:26.944Z,94767.09
2022-07-28T02:11:13.658Z,94756.53
2022-07-28T02:18:46.821Z,94774.13
2022-07-28T02:21:16.077Z,94780.78
2022-07-28T02:23:45.419Z,94790.97
2022-07-28T02:26:15.342Z,94781.13
2022-07-28T02:28:52.097Z,94786.34
2022-07-28T02:31:24.574Z,94781.56
2022-07-28T02:34:00.410Z,94771.19
2022-07-28T02:41:38.959Z,94782.41
2022-07-28T02:44:15.281Z,94787.75
2022-07-28T02:46:45.508Z,94792.59
2022-07-28T02:49:18.177Z,94794.91
2022-07-28T02:51:48.096Z,94805.16
2022-07-28T02:54:17.973Z,94794.56
2022-07-28T02:56:53.435Z,94789.91
2022-07-28T03:04:40.757Z,94778.50
2022-07-28T03:07:08.834Z,94770.06
2022-07-28T03:09:40.143Z,94771.34
2022-07-28T03:12:08.235Z,94764.94
2022-07-28T03:14:35.895Z,94772.47
2022-07-28T03:17:03.806Z,94780.31
2022-07-28T03:19:32.264Z,94777.06
2022-07-28T03:27:15.458Z,94769.88
2022-07-28T03:29:46.670Z,94766.28
2022-07-28T03:32:14.202Z,94772.19
2022-07-28T03:34:41.911Z,94786.38
2022-07-28T03:37:14.680Z,94797.31
2022-07-28T03:39:47.482Z,94800.31
2022-07-28T03:42:17.616Z,94805.66
2022-07-28T03:49:48.490Z,94807.38
2022-07-28T03:52:16.118Z,94811.06
2022-07-28T03:54:43.884Z,94808.88
2022-07-28T03:57:11.975Z,94796.88
2022-07-28T03:59:39.453Z,94797.44
2022-07-28T04:02:07.265Z,94792.13
2022-07-28T04:04:34.770Z,94798.69
2022-07-28T04:12:07.245Z,94804.75
2022-07-28T04:14:34.733Z,94802.19
2022-07-28T04:17:02.266Z,94801.69
2022-07-28T04:19:29.728Z,94812.13
2022-07-28T04:21:57.258Z,94808.88
2022-07-28T04:24:24.785Z,94810.53
2022-07-28T04:26:52.303Z,94805.09
2022-07-28T04:34:24.708Z,94810.47
2022-07-28T04:36:52.684Z,94812.63
2022-07-28T04:39:20.161Z,94803.44
2022-07-28T04:41:47.654Z,94809.66
2022-07-28T04:44:16.926Z,94815.00
2022-07-28T04:46:44.674Z,94807.41
2022-07-28T04:49:12.389Z,94815.69
2022-07-28T04:56:43.167Z,94804.03
2022-07-28T04:59:11.482Z,94800.38
2022-07-28T05:01:42.063Z,94797.22
2022-07-28T05:04:09.654Z,94796.00
2022-07-28T05:06:37.402Z,94797.25
2022-07-28T05:09:04.974Z,94810.00
2022-07-28T05:11:32.332Z,94815.53
2022-07-28T05:18:59.072Z,94817.97
2022-07-28T05:21:26.685Z,94815.97
2022-07-28T05:23:54.170Z,94814.34
2022-07-28T05:26:22.179Z,94814.69
2022-07-28T05:28:49.889Z,94815.59
2022-07-28T05:31:17.316Z,94812.75
2022-07-28T05:33:44.953Z,94816.56
2022-07-28T05:41:15.808Z,94817.72
2022-07-28T05:43:43.311Z,94816.75
2022-07-28T05:46:10.944Z,94816.03
2022-07-28T05:48:38.547Z,94815.63
2022-07-28T05:51:06.292Z,94813.53
2022-07-28T05:53:33.675Z,94814.53
2022-07-28T05:56:01.896Z,94815.34
2022-07-28T06:03:39.775Z,94802.44
2022-07-28T06:06:14.884Z,94812.63
2022-07-28T06:08:45.943Z,94821.69
2022-07-28T06:11:22.210Z,94823.44
2022-07-28T06:13:51.840Z,94822.97
2022-07-28T06:16:20.518Z,94819.00
2022-07-28T06:18:48.978Z,94822.16
2022-07-28T06:26:23.460Z,94831.19
2022-07-28T06:28:51.781Z,94843.44
2022-07-28T06:31:19.342Z,94841.06
2022-07-28T06:33:46.882Z,94832.56
2022-07-28T06:36:14.436Z,94839.06
2022-07-28T06:38:41.921Z,94831.75
2022-07-28T06:41:09.406Z,94826.16
2022-07-28T06:48:42.858Z,94816.31
2022-07-28T06:51:10.501Z,94828.22
2022-07-28T06:53:38.332Z,94823.13
2022-07-28T06:56:06.376Z,94827.00
2022-07-28T06:58:35.107Z,94821.09
2022-07-28T07:01:06.855Z,94814.25
2022-07-28T07:03:34.403Z,94811.72
2022-07-28T07:11:05.379Z,94812.63
2022-07-28T07:13:33.136Z,94812.84
2022-07-28T07:16:00.886Z,94811.19
2022-07-28T07:18:28.481Z,94817.03
2022-07-28T07:20:57.322Z,94815.25
2022-07-28T07:23:24.951Z,94818.88
2022-07-28T07:25:52.463Z,94825.84
2022-07-28T07:33:23.599Z,94829.38
2022-07-28T07:35:51.160Z,94818.09
2022-07-28T07:38:18.728Z,94821.00
2022-07-28T07:40:46.209Z,94821.34
2022-07-28T07:43:13.654Z,94824.38
2022-07-28T07:45:41.342Z,94834.97
2022-07-28T07:48:08.926Z,94831.50
2022-07-28T07:55:40.164Z,94839.72
2022-07-28T07:58:07.681Z,94840.03
2022-07-28T08:00:35.470Z,94848.25
2022-07-28T08:03:02.992Z,94854.03
2022-07-28T08:05:34.738Z,94857.03
2022-07-28T08:08:02.917Z,94860.53
2022-07-28T08:10:30.630Z,94861.88
2022-07-28T08:17:35.769Z,94863.19
2022-07-28T08:20:03.896Z,94864.72
2022-07-28T08:22:31.646Z,94861.47
2022-07-28T08:25:00.713Z,94868.81
2022-07-28T08:27:28.789Z,94872.69
2022-07-28T08:29:56.304Z,94868.59
2022-07-28T08:32:23.931Z,94877.66
2022-07-28T08:39:50.397Z,94885.25
2022-07-28T08:42:20.624Z,94886.50
2022-07-28T08:44:54.377Z,94886.53
2022-07-28T08:47:23.359Z,94885.25
2022-07-28T08:49:54.387Z,94883.34
2022-07-28T08:52:24.823Z,94880.19
2022-07-28T09:00:34.122Z,94888.38
2022-07-28T09:03:03.651Z,94884.50
2022-07-28T09:05:32.390Z,94884.94
2022-07-28T09:08:00.259Z,94892.50
2022-07-28T09:10:28.144Z,94892.34
2022-07-28T09:12:55.804Z,94898.03
2022-07-28T09:15:23.525Z,94899.53
2022-07-28T09:23:00.124Z,94887.03
2022-07-28T09:25:28.888Z,94882.81
2022-07-28T09:27:59.525Z,94883.28
2022-07-28T09:30:32.019Z,94872.41
2022-07-28T09:33:42.929Z,94873.81
2022-07-28T09:36:02.341Z,94879.31
2022-07-28T09:38:41.311Z,94873.03
2022-07-28T09:46:09.934Z,94867.88
2022-07-28T09:48:51.938Z,94867.22
2022-07-28T09:51:21.589Z,94870.13
2022-07-28T09:53:49.748Z,94871.84
2022-07-28T09:56:18.125Z,94865.88
2022-07-28T09:58:54.348Z,94868.81
2022-07-28T10:01:24.571Z,94872.28
2022-07-28T10:08:19.879Z,94864.34
2022-07-28T10:10:59.474Z,94874.38
2022-07-28T10:13:27.199Z,94871.00
2022-07-28T10:16:11.492Z,94870.56
2022-07-28T10:18:41.294Z,94873.06
2022-07-28T10:21:14.455Z,94870.97
2022-07-28T10:23:47.892Z,94872.41
2022-07-28T10:30:47.680Z,94861.53
2022-07-28T10:33:16.710Z,94866.63
2022-07-28T10:35:54.569Z,94854.63
2022-07-28T10:38:29.134Z,94859.16
2022-07-28T10:41:01.917Z,94856.66
2022-07-28T10:43:31.378Z,94860.44
2022-07-28T10:46:06.297Z,94859.72
2022-07-28T10:51:14.728Z,94844.97
2022-07-28T10:53:51.505Z,94848.28
2022-07-28T10:56:28.172Z,94848.06
2022-07-28T10:59:04.920Z,94850.94
2022-07-28T11:01:52.132Z,94842.00
2022-07-28T11:05:01.482Z,94841.19
2022-07-28T11:12:47.967Z,94838.84
2022-07-28T11:15:27.836Z,94824.75
2022-07-28T11:18:00.199Z,94823.72
2022-07-28T11:21:00.840Z,94816.34
2022-07-28T11:23:54.021Z,94813.03
2022-07-28T11:26:38.165Z,94809.47
2022-07-28T11:34:24.853Z,94808.66
2022-07-28T11:37:10.268Z,94805.19
2022-07-28T11:39:44.070Z,94804.94
2022-07-28T11:42:26.021Z,94796.00
2022-07-28T11:44:54.203Z,94802.03
2022-07-28T11:47:24.032Z,94784.50
2022-07-28T11:50:14.674Z,94784.72
2022-07-28T11:57:26.439Z,94783.16
2022-07-28T11:59:59.148Z,94786.72
2022-07-28T12:02:32.395Z,94772.81
2022-07-28T12:05:11.821Z,94783.69
2022-07-28T12:07:42.332Z,94778.66
2022-07-28T12:10:53.395Z,94780.41
2022-07-28T12:15:56.236Z,94780.81
2022-07-28T12:18:25.422Z,94781.94
2022-07-28T12:20:54.026Z,94777.22
2022-07-28T12:23:45.888Z,94781.19
2022-07-28T12:26:34.458Z,94784.69
2022-07-28T12:29:11.735Z,94789.84
2022-07-28T12:37:25.104Z,94772.78
2022-07-28T12:39:52.998Z,94769.03
2022-07-28T12:42:21.477Z,94763.50
2022-07-28T12:44:50.758Z,94772.16
2022-07-28T12:47:27.145Z,94768.59
2022-07-28T12:50:14.943Z,94755.66
2022-07-28T13:00:13.740Z,94737.19
2022-07-28T13:02:41.678Z,94736.09
2022-07-28T13:05:10.450Z,94737.78
2022-07-28T13:07:37.960Z,94741.94
2022-07-28T13:10:12.509Z,94739.03
2022-07-28T13:12:40.665Z,94736.19
2022-07-28T13:15:17.372Z,94740.81
2022-07-28T13:20:24.140Z,94749.50
2022-07-28T13:22:52.431Z,94747.41
2022-07-28T13:25:20.939Z,94745.03
2022-07-28T13:27:54.990Z,94749.78
2022-07-28T13:30:23.704Z,94743.84
2022-07-28T13:32:54.160Z,94737.97
2022-07-28T13:35:22.654Z,94731.66
2022-07-28T13:42:35.357Z,94740.31
2022-07-28T13:45:05.283Z,94737.34
2022-07-28T13:47:35.767Z,94726.97
2022-07-28T13:50:09.687Z,94730.56
2022-07-28T13:52:38.828Z,94722.47
2022-07-28T13:55:09.588Z,94727.19
2022-07-28T13:57:42.977Z,94722.22
2022-07-28T14:04:52.883Z,94727.81
2022-07-28T14:07:21.448Z,94718.66
2022-07-28T14:09:50.225Z,94715.38
2022-07-28T14:12:17.965Z,94710.09
2022-07-28T14:14:48.221Z,94713.56
2022-07-28T14:17:40.179Z,94716.41
2022-07-28T14:20:05.484Z,94722.97
2022-07-28T14:27:37.402Z,94715.91
2022-07-28T14:30:06.422Z,94721.63
2022-07-28T14:32:34.034Z,94715.03
2022-07-28T14:35:02.255Z,94722.00
2022-07-28T14:37:47.178Z,94725.03
2022-07-28T14:40:18.614Z,94723.81
2022-07-28T14:45:26.781Z,94719.66
2022-07-28T14:47:55.440Z,94704.03
2022-07-28T14:50:23.240Z,94708.72
2022-07-28T14:52:50.858Z,94710.56
2022-07-28T14:55:18.299Z,94704.66
2022-07-28T14:57:52.510Z,94703.94
2022-07-28T15:00:24.244Z,94704.25
2022-07-28T15:06:53.472Z,94731.47
2022-07-28T15:09:21.476Z,94736.25
2022-07-28T15:11:49.135Z,94743.22
2022-07-28T15:14:20.427Z,94743.91
2022-07-28T15:16:49.185Z,94762.03
2022-07-28T15:19:17.590Z,94768.66
2022-07-28T15:21:46.813Z,94765.38
2022-07-28T15:28:35.091Z,94773.34
2022-07-28T15:31:03.099Z,94768.34
2022-07-28T15:33:36.348Z,94749.41
2022-07-28T15:36:05.361Z,94741.69
2022-07-28T15:38:33.142Z,94728.81
2022-07-28T15:41:01.139Z,94707.97
2022-07-28T15:43:29.927Z,94708.59
2022-07-28T15:50:56.631Z,94665.75
2022-07-28T15:53:24.513Z,94656.47
2022-07-28T15:55:52.377Z,94643.63
2022-07-28T15:58:21.084Z,94632.78
2022-07-28T16:00:49.033Z,94637.41
2022-07-28T16:03:16.990Z,94649.06
2022-07-28T16:05:49.142Z,94660.13
2022-07-28T16:12:38.161Z,94710.06
2022-07-28T16:15:06.579Z,94724.22
2022-07-28T16:17:34.635Z,94742.19
2022-07-28T16:20:02.739Z,94757.38
2022-07-28T16:22:34.397Z,94762.34
2022-07-28T16:25:02.184Z,94746.50
2022-07-28T16:27:30.489Z,94751.81
2022-07-28T16:35:02.718Z,94764.28
2022-07-28T16:37:31.097Z,94749.91
2022-07-28T16:39:58.779Z,94745.03
2022-07-28T16:42:26.397Z,94743.66
2022-07-28T16:44:53.952Z,94766.84
2022-07-28T16:47:22.097Z,94787.03
2022-07-28T16:49:50.123Z,94808.63
2022-07-28T16:57:17.284Z,94828.44
2022-07-28T16:59:48.774Z,94822.44
2022-07-28T17:02:17.806Z,94833.06
2022-07-28T17:04:46.104Z,94824.25
2022-07-28T17:07:13.745Z,94830.22
2022-07-28T17:09:41.204Z,94835.97
2022-07-28T17:12:09.000Z,94846.72
2022-07-28T17:19:46.477Z,94854.31
2022-07-28T17:22:15.244Z,94858.63
2022-07-28T17:24:43.017Z,94861.25
2022-07-28T17:29:58.430Z,94863.00
2022-07-28T17:32:26.144Z,94874.63
2022-07-28T17:34:56.955Z,94873.94
2022-07-28T17:41:51.930Z,94891.06
2022-07-28T17:44:19.698Z,94890.06
2022-07-28T17:46:48.102Z,94897.78
2022-07-28T17:49:16.096Z,94898.16
2022-07-28T17:51:44.494Z,94904.53
2022-07-28T17:54:14.905Z,94920.81
2022-07-28T17:56:42.816Z,94925.22
2022-07-28T18:03:58.794Z,94920.09
2022-07-28T18:06:31.524Z,94920.88
2022-07-28T18:09:05.364Z,94932.69
2022-07-28T18:11:34.843Z,94929.97
2022-07-28T18:14:05.338Z,94924.75
2022-07-28T18:16:33.535Z,94924.88
2022-07-28T18:19:02.000Z,94911.72
2022-07-28T18:26:33.136Z,94892.75
2022-07-28T18:29:00.797Z,94896.91
2022-07-28T18:31:28.659Z,94912.34
2022-07-28T18:33:56.268Z,94914.19
2022-07-28T18:36:23.957Z,94917.88
2022-07-28T18:38:51.454Z,94920.91
2022-07-28T18:41:19.080Z,94930.13
2022-07-28T18:48:47.861Z,94919.81
2022-07-28T18:51:17.315Z,94926.31
2022-07-28T18:53:44.697Z,94923.72
2022-07-28T18:56:12.295Z,94925.00
2022-07-28T18:58:40.090Z,94934.53
2022-07-28T19:01:13.212Z,94929.91
2022-07-28T19:03:41.473Z,94929.56
2022-07-28T19:11:20.036Z,94939.25
2022-07-28T19:13:48.112Z,94943.38
2022-07-28T19:16:16.021Z,94944.63
2022-07-28T19:18:43.772Z,94962.22
2022-07-28T19:21:11.436Z,94966.59
2022-07-28T19:23:39.166Z,94967.97
2022-07-28T19:26:06.716Z,94966.06
2022-07-28T19:31:29.637Z,94967.19
2022-07-28T19:33:57.436Z,94979.47
2022-07-28T19:36:25.465Z,94989.13
2022-07-28T19:38:53.039Z,94993.84
2022-07-28T19:41:20.586Z,95003.34
2022-07-28T19:43:48.109Z,95002.56
2022-07-28T19:46:15.663Z,95003.59
2022-07-28T19:53:14.789Z,95012.81
2022-07-28T19:55:43.384Z,95017.00
2022-07-28T19:58:18.699Z,95011.16
2022-07-28T20:00:47.848Z,95005.50
2022-07-28T20:04:01.475Z,95015.00
2022-07-28T20:06:03.065Z,95019.16
2022-07-28T20:08:31.496Z,95020.81
2022-07-28T20:16:04.149Z,95037.38
2022-07-28T20:18:31.673Z,95036.63
2022-07-28T20:20:59.246Z,95031.22
2022-07-28T20:23:26.701Z,95040.72
2022-07-28T20:25:54.448Z,95035.91
2022-07-28T20:28:21.858Z,95046.91
2022-07-28T20:30:49.499Z,95056.50
2022-07-28T20:38:22.869Z,95075.44
2022-07-28T20:40:50.458Z,95071.84
2022-07-28T20:43:18.059Z,95078.44
2022-07-28T20:45:45.969Z,95084.25
2022-07-28T20:48:14.569Z,95085.66
2022-07-28T20:50:43.101Z,95087.84
2022-07-28T20:53:12.468Z,95096.03
2022-07-28T21:00:43.083Z,95101.44
2022-07-28T21:03:10.645Z,95101.03
2022-07-28T21:05:38.251Z,95094.16
2022-07-28T21:08:09.251Z,95105.56
2022-07-28T21:10:43.655Z,95106.28
2022-07-28T21:13:11.176Z,95103.56
2022-07-28T21:15:38.611Z,95092.75
2022-07-28T21:18:06.893Z,95097.53
2022-07-28T21:25:38.022Z,95076.50
2022-07-28T21:28:23.985Z,95072.31
2022-07-28T21:30:51.392Z,95081.03
2022-07-28T21:33:22.921Z,95074.06
2022-07-28T21:35:50.906Z,95071.91
2022-07-28T21:38:18.393Z,95058.53
2022-07-28T21:40:46.685Z,95060.38
2022-07-28T21:48:22.723Z,95039.88
2022-07-28T21:50:50.181Z,95033.19
2022-07-28T21:53:17.933Z,95033.38
2022-07-28T21:55:46.117Z,95034.97
2022-07-28T21:58:13.881Z,95037.19
2022-07-28T22:00:41.480Z,95029.94
2022-07-28T22:03:09.380Z,95027.88
2022-07-28T22:10:41.906Z,95016.28
2022-07-28T22:13:09.441Z,95013.16
2022-07-28T22:15:37.072Z,95007.59
2022-07-28T22:20:31.834Z,95011.53
2022-07-28T22:22:59.397Z,95011.75
2022-07-28T22:25:27.122Z,95009.00
2022-07-28T22:32:53.516Z,95010.00
2022-07-28T22:35:21.143Z,95009.63
2022-07-28T22:37:48.979Z,95002.81
2022-07-28T22:40:16.521Z,95005.13
2022-07-28T22:42:45.062Z,95008.72
2022-07-28T22:45:12.886Z,95003.63
2022-07-28T22:47:40.560Z,94992.84
2022-07-28T22:58:00.687Z,95009.41
2022-07-28T23:00:31.186Z,94997.81
2022-07-28T23:02:58.896Z,95005.59
2022-07-28T23:05:26.613Z,95004.41
2022-07-28T23:07:57.258Z,95009.50
2022-07-28T23:10:26.807Z,95011.41
2022-07-28T23:17:29.539Z,95018.78
2022-07-28T23:19:58.380Z,95017.59
2022-07-28T23:22:25.907Z,95011.88
2022-07-28T23:24:53.382Z,95020.34
2022-07-28T23:27:21.212Z,95027.09
2022-07-28T23:29:48.689Z,95043.00
2022-07-28T23:32:17.232Z,95055.78
2022-07-28T23:39:47.991Z,95066.06
2022-07-28T23:42:16.329Z,95054.16
2022-07-28T23:44:43.867Z,95066.16
2022-07-28T23:47:11.539Z,95059.09
2022-07-28T23:49:39.065Z,95056.31
2022-07-28T23:52:06.676Z,95060.63
2022-07-28T23:54:34.261Z,95071.81
